sensor_id;sensor_type;location;lat;lon;timestamp;temperature;humidity
14604;DHT22;7388;51.078;13.740;2023-04-25T00:02:12;14.80;36.20
14604;DHT22;7388;51.078;13.740;2023-04-25T00:04:38;14.80;36.60
14604;DHT22;7388;51.078;13.740;2023-04-25T00:07:04;14.80;36.50
14604;DHT22;7388;51.078;13.740;2023-04-25T00:09:30;14.80;36.40
14604;DHT22;7388;51.078;13.740;2023-04-25T00:11:56;14.80;36.80
14604;DHT22;7388;51.078;13.740;2023-04-25T00:14:22;14.80;36.40
14604;DHT22;7388;51.078;13.740;2023-04-25T00:16:48;14.70;36.80
14604;DHT22;7388;51.078;13.740;2023-04-25T00:19:14;14.70;36.90
14604;DHT22;7388;51.078;13.740;2023-04-25T00:21:40;14.70;37.10
14604;DHT22;7388;51.078;13.740;2023-04-25T00:24:06;14.70;37.20
14604;DHT22;7388;51.078;13.740;2023-04-25T00:26:34;14.70;37.50
14604;DHT22;7388;51.078;13.740;2023-04-25T00:29:01;14.60;37.80
14604;DHT22;7388;51.078;13.740;2023-04-25T00:31:27;14.50;38.20
14604;DHT22;7388;51.078;13.740;2023-04-25T00:33:54;14.50;38.10
14604;DHT22;7388;51.078;13.740;2023-04-25T00:36:20;14.50;38.10
14604;DHT22;7388;51.078;13.740;2023-04-25T00:38:46;14.50;38.20
14604;DHT22;7388;51.078;13.740;2023-04-25T00:41:12;14.40;38.10
14604;DHT22;7388;51.078;13.740;2023-04-25T00:43:37;14.40;37.80
14604;DHT22;7388;51.078;13.740;2023-04-25T00:46:05;14.40;37.80
14604;DHT22;7388;51.078;13.740;2023-04-25T00:48:30;14.40;37.80
14604;DHT22;7388;51.078;13.740;2023-04-25T00:50:59;14.40;37.90
14604;DHT22;7388;51.078;13.740;2023-04-25T00:53:27;14.40;38.00
14604;DHT22;7388;51.078;13.740;2023-04-25T00:55:53;14.40;37.80
14604;DHT22;7388;51.078;13.740;2023-04-25T00:58:21;14.40;37.80
14604;DHT22;7388;51.078;13.740;2023-04-25T01:00:48;14.30;37.70
14604;DHT22;7388;51.078;13.740;2023-04-25T01:03:14;14.30;37.70
14604;DHT22;7388;51.078;13.740;2023-04-25T01:05:42;14.30;37.60
14604;DHT22;7388;51.078;13.740;2023-04-25T01:08:08;14.30;37.50
14604;DHT22;7388;51.078;13.740;2023-04-25T01:10:34;14.30;37.60
14604;DHT22;7388;51.078;13.740;2023-04-25T01:12:59;14.20;37.60
14604;DHT22;7388;51.078;13.740;2023-04-25T01:15:25;14.20;37.50
14604;DHT22;7388;51.078;13.740;2023-04-25T01:17:51;14.20;37.40
14604;DHT22;7388;51.078;13.740;2023-04-25T01:20:20;14.20;37.30
14604;DHT22;7388;51.078;13.740;2023-04-25T01:22:46;14.20;37.30
14604;DHT22;7388;51.078;13.740;2023-04-25T01:25:12;14.20;37.10
14604;DHT22;7388;51.078;13.740;2023-04-25T01:27:38;14.10;37.20
14604;DHT22;7388;51.078;13.740;2023-04-25T01:30:05;14.10;37.10
14604;DHT22;7388;51.078;13.740;2023-04-25T01:32:31;14.10;37.30
14604;DHT22;7388;51.078;13.740;2023-04-25T01:35:05;14.00;37.30
14604;DHT22;7388;51.078;13.740;2023-04-25T01:37:36;14.00;37.90
14604;DHT22;7388;51.078;13.740;2023-04-25T01:40:06;13.90;37.30
14604;DHT22;7388;51.078;13.740;2023-04-25T01:42:33;13.90;37.40
14604;DHT22;7388;51.078;13.740;2023-04-25T01:44:59;13.80;37.90
14604;DHT22;7388;51.078;13.740;2023-04-25T01:47:25;13.80;37.30
14604;DHT22;7388;51.078;13.740;2023-04-25T01:49:51;13.70;37.40
14604;DHT22;7388;51.078;13.740;2023-04-25T01:52:16;13.60;37.50
14604;DHT22;7388;51.078;13.740;2023-04-25T01:54:42;13.60;37.50
14604;DHT22;7388;51.078;13.740;2023-04-25T01:57:11;13.60;37.40
14604;DHT22;7388;51.078;13.740;2023-04-25T01:59:36;13.50;37.30
14604;DHT22;7388;51.078;13.740;2023-04-25T02:02:02;13.60;37.30
14604;DHT22;7388;51.078;13.740;2023-04-25T02:04:31;13.50;37.50
14604;DHT22;7388;51.078;13.740;2023-04-25T02:07:30;13.50;37.40
14604;DHT22;7388;51.078;13.740;2023-04-25T02:09:57;13.40;37.40
14604;DHT22;7388;51.078;13.740;2023-04-25T02:12:22;13.30;37.40
14604;DHT22;7388;51.078;13.740;2023-04-25T02:14:48;13.30;37.50
14604;DHT22;7388;51.078;13.740;2023-04-25T02:17:14;13.20;37.40
14604;DHT22;7388;51.078;13.740;2023-04-25T02:19:40;13.20;37.50
14604;DHT22;7388;51.078;13.740;2023-04-25T02:22:05;13.20;37.30
14604;DHT22;7388;51.078;13.740;2023-04-25T02:24:31;13.10;37.50
14604;DHT22;7388;51.078;13.740;2023-04-25T02:26:59;13.20;37.50
14604;DHT22;7388;51.078;13.740;2023-04-25T02:29:24;13.10;37.50
14604;DHT22;7388;51.078;13.740;2023-04-25T02:31:50;13.00;37.50
14604;DHT22;7388;51.078;13.740;2023-04-25T02:34:16;13.00;37.60
14604;DHT22;7388;51.078;13.740;2023-04-25T02:36:41;12.90;37.60
14604;DHT22;7388;51.078;13.740;2023-04-25T02:39:07;12.90;37.70
14604;DHT22;7388;51.078;13.740;2023-04-25T02:41:33;12.90;37.70
14604;DHT22;7388;51.078;13.740;2023-04-25T02:43:59;12.80;37.60
14604;DHT22;7388;51.078;13.740;2023-04-25T02:46:24;12.80;37.60
14604;DHT22;7388;51.078;13.740;2023-04-25T02:48:50;12.80;37.60
14604;DHT22;7388;51.078;13.740;2023-04-25T02:51:16;12.80;37.60
14604;DHT22;7388;51.078;13.740;2023-04-25T02:53:42;12.80;37.50
14604;DHT22;7388;51.078;13.740;2023-04-25T02:56:07;12.80;37.60
14604;DHT22;7388;51.078;13.740;2023-04-25T02:58:33;12.70;37.70
14604;DHT22;7388;51.078;13.740;2023-04-25T03:00:59;12.70;37.70
14604;DHT22;7388;51.078;13.740;2023-04-25T03:03:24;12.60;37.70
14604;DHT22;7388;51.078;13.740;2023-04-25T03:05:51;12.60;38.00
14604;DHT22;7388;51.078;13.740;2023-04-25T03:08:17;12.60;38.00
14604;DHT22;7388;51.078;13.740;2023-04-25T03:10:44;12.60;37.80
14604;DHT22;7388;51.078;13.740;2023-04-25T03:13:09;12.60;38.20
14604;DHT22;7388;51.078;13.740;2023-04-25T03:15:36;12.50;38.20
14604;DHT22;7388;51.078;13.740;2023-04-25T03:18:02;12.50;37.90
14604;DHT22;7388;51.078;13.740;2023-04-25T03:20:28;12.40;37.90
14604;DHT22;7388;51.078;13.740;2023-04-25T03:22:54;12.30;38.10
14604;DHT22;7388;51.078;13.740;2023-04-25T03:25:19;12.20;38.10
14604;DHT22;7388;51.078;13.740;2023-04-25T03:27:45;12.10;38.20
14604;DHT22;7388;51.078;13.740;2023-04-25T03:30:11;12.10;38.40
14604;DHT22;7388;51.078;13.740;2023-04-25T03:32:37;12.10;39.10
14604;DHT22;7388;51.078;13.740;2023-04-25T03:35:03;12.10;38.70
14604;DHT22;7388;51.078;13.740;2023-04-25T03:37:29;12.00;38.50
14604;DHT22;7388;51.078;13.740;2023-04-25T03:39:55;12.00;38.60
14604;DHT22;7388;51.078;13.740;2023-04-25T03:42:21;12.10;38.70
14604;DHT22;7388;51.078;13.740;2023-04-25T03:44:48;12.10;38.50
14604;DHT22;7388;51.078;13.740;2023-04-25T03:47:15;12.20;38.50
14604;DHT22;7388;51.078;13.740;2023-04-25T03:49:41;12.20;38.50
14604;DHT22;7388;51.078;13.740;2023-04-25T03:52:06;12.20;38.30
14604;DHT22;7388;51.078;13.740;2023-04-25T03:54:32;12.20;38.30
14604;DHT22;7388;51.078;13.740;2023-04-25T03:56:58;12.20;38.40
14604;DHT22;7388;51.078;13.740;2023-04-25T03:59:24;12.10;38.30
14604;DHT22;7388;51.078;13.740;2023-04-25T04:01:51;12.10;38.40
14604;DHT22;7388;51.078;13.740;2023-04-25T04:04:17;12.00;38.40
14604;DHT22;7388;51.078;13.740;2023-04-25T04:06:43;12.00;38.40
14604;DHT22;7388;51.078;13.740;2023-04-25T04:09:09;12.00;38.40
14604;DHT22;7388;51.078;13.740;2023-04-25T04:11:37;12.00;38.60
14604;DHT22;7388;51.078;13.740;2023-04-25T04:14:05;11.90;38.60
14604;DHT22;7388;51.078;13.740;2023-04-25T04:16:31;12.00;38.60
14604;DHT22;7388;51.078;13.740;2023-04-25T04:18:56;12.00;38.50
14604;DHT22;7388;51.078;13.740;2023-04-25T04:21:22;12.00;38.70
14604;DHT22;7388;51.078;13.740;2023-04-25T04:23:48;11.90;38.80
14604;DHT22;7388;51.078;13.740;2023-04-25T04:26:14;12.00;38.90
14604;DHT22;7388;51.078;13.740;2023-04-25T04:28:42;12.00;39.00
14604;DHT22;7388;51.078;13.740;2023-04-25T04:31:09;12.10;39.10
14604;DHT22;7388;51.078;13.740;2023-04-25T04:33:35;12.10;39.10
14604;DHT22;7388;51.078;13.740;2023-04-25T04:36:02;12.10;39.10
14604;DHT22;7388;51.078;13.740;2023-04-25T04:38:29;12.20;39.00
14604;DHT22;7388;51.078;13.740;2023-04-25T04:40:55;12.20;38.90
14604;DHT22;7388;51.078;13.740;2023-04-25T04:43:21;12.30;38.90
14604;DHT22;7388;51.078;13.740;2023-04-25T04:45:48;12.40;38.80
14604;DHT22;7388;51.078;13.740;2023-04-25T04:48:16;12.50;38.80
14604;DHT22;7388;51.078;13.740;2023-04-25T04:50:45;12.50;38.70
14604;DHT22;7388;51.078;13.740;2023-04-25T04:53:11;12.60;38.60
14604;DHT22;7388;51.078;13.740;2023-04-25T04:55:37;12.60;38.50
14604;DHT22;7388;51.078;13.740;2023-04-25T04:58:03;12.70;38.50
14604;DHT22;7388;51.078;13.740;2023-04-25T05:00:29;12.80;38.40
14604;DHT22;7388;51.078;13.740;2023-04-25T05:02:56;12.80;38.40
14604;DHT22;7388;51.078;13.740;2023-04-25T05:05:22;12.90;38.10
14604;DHT22;7388;51.078;13.740;2023-04-25T05:07:47;13.00;38.00
14604;DHT22;7388;51.078;13.740;2023-04-25T05:10:13;13.00;37.90
14604;DHT22;7388;51.078;13.740;2023-04-25T05:12:39;13.10;37.90
14604;DHT22;7388;51.078;13.740;2023-04-25T05:15:05;13.20;37.80
14604;DHT22;7388;51.078;13.740;2023-04-25T05:17:31;13.30;37.80
14604;DHT22;7388;51.078;13.740;2023-04-25T05:19:58;13.40;37.50
14604;DHT22;7388;51.078;13.740;2023-04-25T05:22:24;13.40;37.40
14604;DHT22;7388;51.078;13.740;2023-04-25T05:24:49;13.30;37.10
14604;DHT22;7388;51.078;13.740;2023-04-25T05:27:17;13.30;37.30
14604;DHT22;7388;51.078;13.740;2023-04-25T05:29:43;13.40;37.40
14604;DHT22;7388;51.078;13.740;2023-04-25T05:32:09;13.40;37.10
14604;DHT22;7388;51.078;13.740;2023-04-25T05:34:35;13.40;36.80
14604;DHT22;7388;51.078;13.740;2023-04-25T05:37:02;13.50;36.80
14604;DHT22;7388;51.078;13.740;2023-04-25T05:39:28;13.60;36.70
14604;DHT22;7388;51.078;13.740;2023-04-25T05:41:54;13.70;36.70
14604;DHT22;7388;51.078;13.740;2023-04-25T05:44:20;13.70;36.40
14604;DHT22;7388;51.078;13.740;2023-04-25T05:46:46;13.80;36.10
14604;DHT22;7388;51.078;13.740;2023-04-25T05:49:12;13.80;36.00
14604;DHT22;7388;51.078;13.740;2023-04-25T05:51:38;13.80;35.60
14604;DHT22;7388;51.078;13.740;2023-04-25T05:54:04;13.80;35.70
14604;DHT22;7388;51.078;13.740;2023-04-25T05:56:29;13.70;35.50
14604;DHT22;7388;51.078;13.740;2023-04-25T05:58:55;13.70;35.80
14604;DHT22;7388;51.078;13.740;2023-04-25T06:01:22;13.80;35.30
14604;DHT22;7388;51.078;13.740;2023-04-25T06:03:48;13.80;35.50
14604;DHT22;7388;51.078;13.740;2023-04-25T06:06:14;13.90;35.60
14604;DHT22;7388;51.078;13.740;2023-04-25T06:08:40;13.90;35.00
14604;DHT22;7388;51.078;13.740;2023-04-25T06:11:06;14.00;35.30
14604;DHT22;7388;51.078;13.740;2023-04-25T06:13:32;14.00;35.00
14604;DHT22;7388;51.078;13.740;2023-04-25T06:15:58;14.10;34.60
14604;DHT22;7388;51.078;13.740;2023-04-25T06:18:23;14.00;34.60
14604;DHT22;7388;51.078;13.740;2023-04-25T06:20:49;14.10;34.50
14604;DHT22;7388;51.078;13.740;2023-04-25T06:23:15;14.20;34.30
14604;DHT22;7388;51.078;13.740;2023-04-25T06:25:40;14.30;34.60
14604;DHT22;7388;51.078;13.740;2023-04-25T06:28:06;14.40;34.30
14604;DHT22;7388;51.078;13.740;2023-04-25T06:30:32;14.50;34.70
14604;DHT22;7388;51.078;13.740;2023-04-25T06:32:57;14.60;33.80
14604;DHT22;7388;51.078;13.740;2023-04-25T06:35:23;14.60;33.30
14604;DHT22;7388;51.078;13.740;2023-04-25T06:37:49;14.70;33.20
14604;DHT22;7388;51.078;13.740;2023-04-25T06:40:15;14.70;33.60
14604;DHT22;7388;51.078;13.740;2023-04-25T06:42:42;14.60;33.60
14604;DHT22;7388;51.078;13.740;2023-04-25T06:45:08;14.70;33.20
14604;DHT22;7388;51.078;13.740;2023-04-25T06:47:34;14.80;33.30
14604;DHT22;7388;51.078;13.740;2023-04-25T06:50:00;14.90;32.80
14604;DHT22;7388;51.078;13.740;2023-04-25T06:52:26;14.90;33.30
14604;DHT22;7388;51.078;13.740;2023-04-25T06:54:51;15.00;33.00
14604;DHT22;7388;51.078;13.740;2023-04-25T06:57:17;15.00;32.20
14604;DHT22;7388;51.078;13.740;2023-04-25T06:59:43;15.10;32.90
14604;DHT22;7388;51.078;13.740;2023-04-25T07:02:08;15.30;32.60
14604;DHT22;7388;51.078;13.740;2023-04-25T07:04:34;15.40;32.90
14604;DHT22;7388;51.078;13.740;2023-04-25T07:07:00;15.50;32.10
14604;DHT22;7388;51.078;13.740;2023-04-25T07:09:28;15.70;32.60
14604;DHT22;7388;51.078;13.740;2023-04-25T07:11:53;15.80;31.30
14604;DHT22;7388;51.078;13.740;2023-04-25T07:14:19;15.90;31.80
14604;DHT22;7388;51.078;13.740;2023-04-25T07:16:45;15.90;31.90
14604;DHT22;7388;51.078;13.740;2023-04-25T07:19:11;16.20;31.80
14604;DHT22;7388;51.078;13.740;2023-04-25T07:21:37;16.20;30.60
14604;DHT22;7388;51.078;13.740;2023-04-25T07:24:03;16.30;30.60
14604;DHT22;7388;51.078;13.740;2023-04-25T07:26:29;16.40;30.40
14604;DHT22;7388;51.078;13.740;2023-04-25T07:28:55;16.50;29.50
14604;DHT22;7388;51.078;13.740;2023-04-25T07:31:22;16.50;28.90
14604;DHT22;7388;51.078;13.740;2023-04-25T07:33:48;16.50;30.10
14604;DHT22;7388;51.078;13.740;2023-04-25T07:36:13;16.50;30.30
14604;DHT22;7388;51.078;13.740;2023-04-25T07:38:40;16.50;29.90
14604;DHT22;7388;51.078;13.740;2023-04-25T07:41:06;16.60;30.10
14604;DHT22;7388;51.078;13.740;2023-04-25T07:43:32;16.70;30.00
14604;DHT22;7388;51.078;13.740;2023-04-25T07:45:58;16.80;28.50
14604;DHT22;7388;51.078;13.740;2023-04-25T07:48:23;16.90;29.50
14604;DHT22;7388;51.078;13.740;2023-04-25T07:50:49;17.00;30.10
14604;DHT22;7388;51.078;13.740;2023-04-25T07:53:16;17.20;29.30
14604;DHT22;7388;51.078;13.740;2023-04-25T07:55:43;17.30;29.70
14604;DHT22;7388;51.078;13.740;2023-04-25T07:58:09;17.20;28.50
14604;DHT22;7388;51.078;13.740;2023-04-25T08:00:36;17.10;28.60
14604;DHT22;7388;51.078;13.740;2023-04-25T08:03:02;17.10;28.70
14604;DHT22;7388;51.078;13.740;2023-04-25T08:05:28;17.30;29.30
14604;DHT22;7388;51.078;13.740;2023-04-25T08:07:54;17.50;29.50
14604;DHT22;7388;51.078;13.740;2023-04-25T08:10:22;17.80;28.80
14604;DHT22;7388;51.078;13.740;2023-04-25T08:12:48;18.00;26.70
14604;DHT22;7388;51.078;13.740;2023-04-25T08:15:14;18.00;28.40
14604;DHT22;7388;51.078;13.740;2023-04-25T08:17:40;18.10;28.50
14604;DHT22;7388;51.078;13.740;2023-04-25T08:20:06;18.10;28.30
14604;DHT22;7388;51.078;13.740;2023-04-25T08:22:32;18.10;28.70
14604;DHT22;7388;51.078;13.740;2023-04-25T08:24:59;18.00;28.00
14604;DHT22;7388;51.078;13.740;2023-04-25T08:27:25;18.00;29.10
14604;DHT22;7388;51.078;13.740;2023-04-25T08:29:51;18.10;29.40
14604;DHT22;7388;51.078;13.740;2023-04-25T08:32:17;18.20;29.20
14604;DHT22;7388;51.078;13.740;2023-04-25T08:34:43;18.30;28.50
14604;DHT22;7388;51.078;13.740;2023-04-25T08:37:09;18.20;27.90
14604;DHT22;7388;51.078;13.740;2023-04-25T08:39:38;18.00;27.70
14604;DHT22;7388;51.078;13.740;2023-04-25T08:42:06;17.90;28.90
14604;DHT22;7388;51.078;13.740;2023-04-25T08:44:35;17.50;28.00
14604;DHT22;7388;51.078;13.740;2023-04-25T08:47:05;17.10;29.50
14604;DHT22;7388;51.078;13.740;2023-04-25T08:49:34;17.00;29.60
14604;DHT22;7388;51.078;13.740;2023-04-25T08:52:02;17.10;29.90
14604;DHT22;7388;51.078;13.740;2023-04-25T08:54:30;17.00;29.20
14604;DHT22;7388;51.078;13.740;2023-04-25T08:56:57;16.90;28.50
14604;DHT22;7388;51.078;13.740;2023-04-25T08:59:25;16.80;29.80
14604;DHT22;7388;51.078;13.740;2023-04-25T09:01:52;16.90;29.90
14604;DHT22;7388;51.078;13.740;2023-04-25T09:04:18;17.10;29.00
14604;DHT22;7388;51.078;13.740;2023-04-25T09:06:44;17.00;29.10
14604;DHT22;7388;51.078;13.740;2023-04-25T09:09:10;16.80;29.20
14604;DHT22;7388;51.078;13.740;2023-04-25T09:11:37;16.80;30.20
14604;DHT22;7388;51.078;13.740;2023-04-25T09:14:14;17.00;30.20
14604;DHT22;7388;51.078;13.740;2023-04-25T09:19:26;17.20;30.00
14604;DHT22;7388;51.078;13.740;2023-04-25T09:21:56;17.30;30.60
14604;DHT22;7388;51.078;13.740;2023-04-25T09:24:35;17.20;29.60
14604;DHT22;7388;51.078;13.740;2023-04-25T09:27:09;17.30;29.90
14604;DHT22;7388;51.078;13.740;2023-04-25T09:29:37;17.20;29.40
14604;DHT22;7388;51.078;13.740;2023-04-25T09:32:19;17.10;30.10
14604;DHT22;7388;51.078;13.740;2023-04-25T09:34:48;17.10;30.10
14604;DHT22;7388;51.078;13.740;2023-04-25T09:37:41;17.00;30.20
14604;DHT22;7388;51.078;13.740;2023-04-25T09:40:07;16.90;29.80
14604;DHT22;7388;51.078;13.740;2023-04-25T09:42:33;16.50;29.60
14604;DHT22;7388;51.078;13.740;2023-04-25T09:45:03;16.30;30.00
14604;DHT22;7388;51.078;13.740;2023-04-25T09:47:29;16.10;30.80
14604;DHT22;7388;51.078;13.740;2023-04-25T09:49:55;16.00;30.20
14604;DHT22;7388;51.078;13.740;2023-04-25T09:52:22;15.90;30.90
14604;DHT22;7388;51.078;13.740;2023-04-25T09:54:49;15.80;30.50
14604;DHT22;7388;51.078;13.740;2023-04-25T09:57:23;15.60;31.30
14604;DHT22;7388;51.078;13.740;2023-04-25T09:59:51;15.60;31.20
14604;DHT22;7388;51.078;13.740;2023-04-25T10:02:19;15.70;32.00
14604;DHT22;7388;51.078;13.740;2023-04-25T10:04:48;15.80;31.70
14604;DHT22;7388;51.078;13.740;2023-04-25T10:07:14;16.00;31.90
14604;DHT22;7388;51.078;13.740;2023-04-25T10:09:40;16.20;32.10
14604;DHT22;7388;51.078;13.740;2023-04-25T10:12:08;16.40;31.90
14604;DHT22;7388;51.078;13.740;2023-04-25T10:14:34;16.60;30.60
14604;DHT22;7388;51.078;13.740;2023-04-25T10:17:01;16.80;31.80
14604;DHT22;7388;51.078;13.740;2023-04-25T10:19:27;17.00;31.80
14604;DHT22;7388;51.078;13.740;2023-04-25T10:22:03;17.20;31.40
14604;DHT22;7388;51.078;13.740;2023-04-25T10:24:30;17.00;30.30
14604;DHT22;7388;51.078;13.740;2023-04-25T10:26:56;16.80;29.90
14604;DHT22;7388;51.078;13.740;2023-04-25T10:29:24;16.70;30.90
14604;DHT22;7388;51.078;13.740;2023-04-25T10:31:50;16.80;31.40
14604;DHT22;7388;51.078;13.740;2023-04-25T10:34:17;16.90;30.90
14604;DHT22;7388;51.078;13.740;2023-04-25T10:36:44;16.90;30.90
14604;DHT22;7388;51.078;13.740;2023-04-25T10:39:24;16.90;31.50
14604;DHT22;7388;51.078;13.740;2023-04-25T10:41:58;17.00;31.60
14604;DHT22;7388;51.078;13.740;2023-04-25T10:44:28;17.00;32.20
14604;DHT22;7388;51.078;13.740;2023-04-25T10:46:56;17.00;30.60
14604;DHT22;7388;51.078;13.740;2023-04-25T10:49:33;16.80;31.60
14604;DHT22;7388;51.078;13.740;2023-04-25T10:52:16;16.80;31.40
14604;DHT22;7388;51.078;13.740;2023-04-25T10:54:54;16.80;31.70
14604;DHT22;7388;51.078;13.740;2023-04-25T10:57:42;16.90;31.50
14604;DHT22;7388;51.078;13.740;2023-04-25T11:05:37;16.40;31.30
14604;DHT22;7388;51.078;13.740;2023-04-25T11:08:02;16.20;31.70
14604;DHT22;7388;51.078;13.740;2023-04-25T11:10:33;16.00;32.40
14604;DHT22;7388;51.078;13.740;2023-04-25T11:13:01;15.90;32.30
14604;DHT22;7388;51.078;13.740;2023-04-25T11:15:28;15.80;32.30
14604;DHT22;7388;51.078;13.740;2023-04-25T11:17:54;15.70;33.20
14604;DHT22;7388;51.078;13.740;2023-04-25T11:20:21;15.60;33.80
14604;DHT22;7388;51.078;13.740;2023-04-25T11:22:48;15.60;34.30
14604;DHT22;7388;51.078;13.740;2023-04-25T11:25:15;15.50;34.40
14604;DHT22;7388;51.078;13.740;2023-04-25T11:27:55;15.60;34.40
14604;DHT22;7388;51.078;13.740;2023-04-25T11:30:23;15.80;35.20
14604;DHT22;7388;51.078;13.740;2023-04-25T11:32:50;15.70;35.40
14604;DHT22;7388;51.078;13.740;2023-04-25T11:35:20;15.80;35.20
14604;DHT22;7388;51.078;13.740;2023-04-25T11:37:48;15.90;34.40
14604;DHT22;7388;51.078;13.740;2023-04-25T11:40:15;16.00;32.60
14604;DHT22;7388;51.078;13.740;2023-04-25T11:42:46;16.10;33.00
14604;DHT22;7388;51.078;13.740;2023-04-25T11:45:12;16.30;33.40
14604;DHT22;7388;51.078;13.740;2023-04-25T11:47:38;16.60;33.00
14604;DHT22;7388;51.078;13.740;2023-04-25T11:50:06;16.80;32.90
14604;DHT22;7388;51.078;13.740;2023-04-25T11:55:10;17.20;31.70
14604;DHT22;7388;51.078;13.740;2023-04-25T11:57:38;17.40;30.40
14604;DHT22;7388;51.078;13.740;2023-04-25T12:00:15;17.40;30.30
14604;DHT22;7388;51.078;13.740;2023-04-25T12:02:52;17.50;30.50
14604;DHT22;7388;51.078;13.740;2023-04-25T12:05:18;17.50;30.50
14604;DHT22;7388;51.078;13.740;2023-04-25T12:07:45;17.50;30.50
14604;DHT22;7388;51.078;13.740;2023-04-25T12:10:16;17.50;30.60
14604;DHT22;7388;51.078;13.740;2023-04-25T12:12:43;17.40;30.00
14604;DHT22;7388;51.078;13.740;2023-04-25T12:15:14;17.30;29.70
14604;DHT22;7388;51.078;13.740;2023-04-25T12:17:42;17.00;29.40
14604;DHT22;7388;51.078;13.740;2023-04-25T12:20:18;16.90;29.90
14604;DHT22;7388;51.078;13.740;2023-04-25T12:22:46;16.70;30.70
14604;DHT22;7388;51.078;13.740;2023-04-25T12:25:13;16.60;30.30
14604;DHT22;7388;51.078;13.740;2023-04-25T12:27:43;16.60;30.60
14604;DHT22;7388;51.078;13.740;2023-04-25T12:30:10;16.60;30.10
14604;DHT22;7388;51.078;13.740;2023-04-25T12:32:38;16.60;29.70
14604;DHT22;7388;51.078;13.740;2023-04-25T12:35:05;16.60;29.80
14604;DHT22;7388;51.078;13.740;2023-04-25T12:37:32;16.70;30.00
14604;DHT22;7388;51.078;13.740;2023-04-25T12:39:57;16.80;29.20
14604;DHT22;7388;51.078;13.740;2023-04-25T12:42:23;17.00;30.40
14604;DHT22;7388;51.078;13.740;2023-04-25T12:44:49;17.20;31.10
14604;DHT22;7388;51.078;13.740;2023-04-25T12:47:14;17.50;28.10
14604;DHT22;7388;51.078;13.740;2023-04-25T12:49:40;17.50;26.80
14604;DHT22;7388;51.078;13.740;2023-04-25T12:52:06;17.30;27.00
14604;DHT22;7388;51.078;13.740;2023-04-25T12:54:32;17.10;27.30
14604;DHT22;7388;51.078;13.740;2023-04-25T12:56:58;17.00;27.10
14604;DHT22;7388;51.078;13.740;2023-04-25T12:59:24;16.90;28.20
14604;DHT22;7388;51.078;13.740;2023-04-25T13:01:50;16.60;27.30
14604;DHT22;7388;51.078;13.740;2023-04-25T13:04:15;16.30;28.90
14604;DHT22;7388;51.078;13.740;2023-04-25T13:06:41;16.30;28.80
14604;DHT22;7388;51.078;13.740;2023-04-25T13:09:07;16.40;29.20
14604;DHT22;7388;51.078;13.740;2023-04-25T13:11:33;16.50;29.60
14604;DHT22;7388;51.078;13.740;2023-04-25T13:14:00;16.50;29.30
14604;DHT22;7388;51.078;13.740;2023-04-25T13:16:26;16.50;29.70
14604;DHT22;7388;51.078;13.740;2023-04-25T13:18:52;16.50;28.60
14604;DHT22;7388;51.078;13.740;2023-04-25T13:21:17;16.30;29.20
14604;DHT22;7388;51.078;13.740;2023-04-25T13:23:43;16.20;28.80
14604;DHT22;7388;51.078;13.740;2023-04-25T13:26:10;16.00;29.30
14604;DHT22;7388;51.078;13.740;2023-04-25T13:28:35;15.90;30.10
14604;DHT22;7388;51.078;13.740;2023-04-25T13:31:01;15.80;30.00
14604;DHT22;7388;51.078;13.740;2023-04-25T13:33:27;15.60;30.10
14604;DHT22;7388;51.078;13.740;2023-04-25T13:35:53;15.60;30.90
14604;DHT22;7388;51.078;13.740;2023-04-25T13:38:24;15.40;30.70
14604;DHT22;7388;51.078;13.740;2023-04-25T13:40:53;15.40;30.60
14604;DHT22;7388;51.078;13.740;2023-04-25T13:43:20;15.40;30.50
14604;DHT22;7388;51.078;13.740;2023-04-25T13:45:48;15.40;29.10
14604;DHT22;7388;51.078;13.740;2023-04-25T13:48:14;15.30;29.20
14604;DHT22;7388;51.078;13.740;2023-04-25T13:50:39;15.20;29.60
14604;DHT22;7388;51.078;13.740;2023-04-25T13:53:05;15.20;29.60
14604;DHT22;7388;51.078;13.740;2023-04-25T13:55:31;15.20;30.10
14604;DHT22;7388;51.078;13.740;2023-04-25T13:57:57;15.20;29.90
14604;DHT22;7388;51.078;13.740;2023-04-25T14:00:22;15.20;30.00
14604;DHT22;7388;51.078;13.740;2023-04-25T14:02:48;15.20;30.00
14604;DHT22;7388;51.078;13.740;2023-04-25T14:05:14;15.20;29.70
14604;DHT22;7388;51.078;13.740;2023-04-25T14:07:40;15.20;30.60
14604;DHT22;7388;51.078;13.740;2023-04-25T14:10:06;15.20;29.50
14604;DHT22;7388;51.078;13.740;2023-04-25T14:12:33;15.20;29.70
14604;DHT22;7388;51.078;13.740;2023-04-25T14:14:58;15.20;29.70
14604;DHT22;7388;51.078;13.740;2023-04-25T14:17:24;15.30;29.80
14604;DHT22;7388;51.078;13.740;2023-04-25T14:19:50;15.20;28.90
14604;DHT22;7388;51.078;13.740;2023-04-25T14:22:16;15.30;29.60
14604;DHT22;7388;51.078;13.740;2023-04-25T14:24:42;15.40;28.80
14604;DHT22;7388;51.078;13.740;2023-04-25T14:27:08;15.40;29.40
14604;DHT22;7388;51.078;13.740;2023-04-25T14:29:34;15.70;30.40
14604;DHT22;7388;51.078;13.740;2023-04-25T14:32:00;15.80;29.00
14604;DHT22;7388;51.078;13.740;2023-04-25T14:34:26;15.80;28.00
14604;DHT22;7388;51.078;13.740;2023-04-25T14:36:52;15.80;28.30
14604;DHT22;7388;51.078;13.740;2023-04-25T14:39:18;15.90;27.50
14604;DHT22;7388;51.078;13.740;2023-04-25T14:41:44;16.10;28.80
14604;DHT22;7388;51.078;13.740;2023-04-25T14:44:10;16.40;29.00
14604;DHT22;7388;51.078;13.740;2023-04-25T14:46:36;16.70;29.40
14604;DHT22;7388;51.078;13.740;2023-04-25T14:49:03;16.90;27.80
14604;DHT22;7388;51.078;13.740;2023-04-25T14:51:29;17.00;27.60
14604;DHT22;7388;51.078;13.740;2023-04-25T14:53:56;17.00;27.10
14604;DHT22;7388;51.078;13.740;2023-04-25T14:56:22;16.90;26.00
14604;DHT22;7388;51.078;13.740;2023-04-25T14:58:48;16.60;26.80
14604;DHT22;7388;51.078;13.740;2023-04-25T15:01:14;16.70;28.70
14604;DHT22;7388;51.078;13.740;2023-04-25T15:03:42;16.80;28.30
14604;DHT22;7388;51.078;13.740;2023-04-25T15:06:08;16.80;26.20
14604;DHT22;7388;51.078;13.740;2023-04-25T15:08:34;16.60;26.00
14604;DHT22;7388;51.078;13.740;2023-04-25T15:11:00;16.50;25.00
14604;DHT22;7388;51.078;13.740;2023-04-25T15:13:26;16.40;25.30
14604;DHT22;7388;51.078;13.740;2023-04-25T15:15:52;16.30;25.60
14604;DHT22;7388;51.078;13.740;2023-04-25T15:18:20;16.20;23.70
14604;DHT22;7388;51.078;13.740;2023-04-25T15:20:50;16.00;25.50
14604;DHT22;7388;51.078;13.740;2023-04-25T15:23:17;16.00;25.70
14604;DHT22;7388;51.078;13.740;2023-04-25T15:25:44;15.90;25.40
14604;DHT22;7388;51.078;13.740;2023-04-25T15:28:09;15.80;25.20
14604;DHT22;7388;51.078;13.740;2023-04-25T15:30:35;15.70;24.50
14604;DHT22;7388;51.078;13.740;2023-04-25T15:33:01;15.50;25.30
14604;DHT22;7388;51.078;13.740;2023-04-25T15:35:27;15.40;25.20
14604;DHT22;7388;51.078;13.740;2023-04-25T15:37:52;15.40;25.60
14604;DHT22;7388;51.078;13.740;2023-04-25T15:40:18;15.30;25.60